sensor_id;sensor_type;location;lat;lon;timestamp;P1;durP1;ratioP1;P2;durP2;ratioP2
14048;SDS011;7099;53.922;10.728;2022-10-16T00:03:32;5.00;;;3.80;;
14048;SDS011;7099;53.922;10.728;2022-10-16T00:07:57;5.20;;;4.30;;
14048;SDS011;7099;53.922;10.728;2022-10-16T00:12:23;6.67;;;4.20;;
14048;SDS011;7099;53.922;10.728;2022-10-16T00:16:48;4.90;;;3.80;;
14048;SDS011;7099;53.922;10.728;2022-10-16T00:21:15;6.33;;;4.13;;
14048;SDS011;7099;53.922;10.728;2022-10-16T00:25:43;6.03;;;4.13;;
14048;SDS011;7099;53.922;10.728;2022-10-16T00:30:09;6.90;;;4.50;;
14048;SDS011;7099;53.922;10.728;2022-10-16T00:34:34;8.33;;;4.40;;
14048;SDS011;7099;53.922;10.728;2022-10-16T00:39:00;7.07;;;4.30;;
14048;SDS011;7099;53.922;10.728;2022-10-16T00:43:34;11.10;;;3.60;;
14048;SDS011;7099;53.922;10.728;2022-10-16T00:48:00;6.13;;;3.43;;
14048;SDS011;7099;53.922;10.728;2022-10-16T00:52:25;3.87;;;3.43;;
14048;SDS011;7099;53.922;10.728;2022-10-16T00:56:51;9.90;;;3.97;;
14048;SDS011;7099;53.922;10.728;2022-10-16T01:01:18;4.80;;;3.40;;
14048;SDS011;7099;53.922;10.728;2022-10-16T01:05:49;4.10;;;3.13;;
14048;SDS011;7099;53.922;10.728;2022-10-16T01:10:40;5.40;;;3.67;;
14048;SDS011;7099;53.922;10.728;2022-10-16T01:15:26;10.93;;;4.30;;
14048;SDS011;7099;53.922;10.728;2022-10-16T01:20:24;5.90;;;4.30;;
14048;SDS011;7099;53.922;10.728;2022-10-16T01:24:56;7.30;;;4.47;;
14048;SDS011;7099;53.922;10.728;2022-10-16T01:29:33;4.83;;;4.20;;
14048;SDS011;7099;53.922;10.728;2022-10-16T01:34:05;6.67;;;4.23;;
14048;SDS011;7099;53.922;10.728;2022-10-16T01:38:38;7.73;;;4.90;;
14048;SDS011;7099;53.922;10.728;2022-10-16T01:43:08;7.10;;;4.73;;
14048;SDS011;7099;53.922;10.728;2022-10-16T01:47:48;10.03;;;4.70;;
14048;SDS011;7099;53.922;10.728;2022-10-16T01:52:17;10.00;;;5.03;;
14048;SDS011;7099;53.922;10.728;2022-10-16T01:56:48;6.60;;;4.40;;
14048;SDS011;7099;53.922;10.728;2022-10-16T02:01:15;6.43;;;4.53;;
14048;SDS011;7099;53.922;10.728;2022-10-16T02:10:20;6.90;;;4.90;;
14048;SDS011;7099;53.922;10.728;2022-10-16T02:14:46;6.30;;;4.17;;
14048;SDS011;7099;53.922;10.728;2022-10-16T02:19:12;5.47;;;3.90;;
14048;SDS011;7099;53.922;10.728;2022-10-16T02:23:49;5.50;;;3.83;;
14048;SDS011;7099;53.922;10.728;2022-10-16T02:28:27;5.23;;;4.07;;
14048;SDS011;7099;53.922;10.728;2022-10-16T02:33:07;10.55;;;4.35;;
14048;SDS011;7099;53.922;10.728;2022-10-16T02:37:35;10.23;;;3.53;;
14048;SDS011;7099;53.922;10.728;2022-10-16T02:42:02;15.03;;;4.27;;
14048;SDS011;7099;53.922;10.728;2022-10-16T02:50:52;7.10;;;3.57;;
14048;SDS011;7099;53.922;10.728;2022-10-16T02:55:17;4.30;;;3.30;;
14048;SDS011;7099;53.922;10.728;2022-10-16T02:59:43;13.23;;;3.70;;
14048;SDS011;7099;53.922;10.728;2022-10-16T03:08:34;10.50;;;3.80;;
14048;SDS011;7099;53.922;10.728;2022-10-16T04:32:32;7.77;;;2.60;;
14048;SDS011;7099;53.922;10.728;2022-10-16T04:36:58;3.20;;;2.03;;
14048;SDS011;7099;53.922;10.728;2022-10-16T04:41:23;6.00;;;2.10;;
14048;SDS011;7099;53.922;10.728;2022-10-16T04:45:48;4.27;;;2.00;;
14048;SDS011;7099;53.922;10.728;2022-10-16T04:50:15;3.47;;;1.90;;
14048;SDS011;7099;53.922;10.728;2022-10-16T04:54:40;3.70;;;1.70;;
14048;SDS011;7099;53.922;10.728;2022-10-16T04:59:06;4.90;;;2.10;;
14048;SDS011;7099;53.922;10.728;2022-10-16T05:03:31;8.97;;;2.60;;
14048;SDS011;7099;53.922;10.728;2022-10-16T06:18:47;2.60;;;1.80;;
14048;SDS011;7099;53.922;10.728;2022-10-16T06:23:14;2.00;;;1.80;;
14048;SDS011;7099;53.922;10.728;2022-10-16T06:27:40;3.00;;;2.00;;
14048;SDS011;7099;53.922;10.728;2022-10-16T06:32:05;4.40;;;1.90;;
14048;SDS011;7099;53.922;10.728;2022-10-16T06:36:31;6.20;;;1.80;;
14048;SDS011;7099;53.922;10.728;2022-10-16T06:40:56;4.47;;;1.87;;
14048;SDS011;7099;53.922;10.728;2022-10-16T06:45:22;4.07;;;1.70;;
14048;SDS011;7099;53.922;10.728;2022-10-16T06:49:47;9.60;;;1.97;;
14048;SDS011;7099;53.922;10.728;2022-10-16T06:54:17;3.80;;;1.87;;
14048;SDS011;7099;53.922;10.728;2022-10-16T06:58:43;4.83;;;1.67;;
14048;SDS011;7099;53.922;10.728;2022-10-16T07:03:09;5.70;;;1.80;;
14048;SDS011;7099;53.922;10.728;2022-10-16T07:07:34;2.77;;;1.80;;
14048;SDS011;7099;53.922;10.728;2022-10-16T07:11:59;5.90;;;1.90;;
14048;SDS011;7099;53.922;10.728;2022-10-16T07:16:25;3.20;;;1.90;;
14048;SDS011;7099;53.922;10.728;2022-10-16T07:20:52;3.90;;;2.00;;
14048;SDS011;7099;53.922;10.728;2022-10-16T07:25:18;6.27;;;1.67;;
14048;SDS011;7099;53.922;10.728;2022-10-16T07:29:43;5.57;;;2.17;;
14048;SDS011;7099;53.922;10.728;2022-10-16T07:34:09;4.73;;;1.70;;
14048;SDS011;7099;53.922;10.728;2022-10-16T07:38:36;6.57;;;1.80;;
14048;SDS011;7099;53.922;10.728;2022-10-16T07:43:02;7.80;;;1.87;;
14048;SDS011;7099;53.922;10.728;2022-10-16T07:47:29;5.90;;;1.97;;
14048;SDS011;7099;53.922;10.728;2022-10-16T07:51:55;5.70;;;1.73;;
14048;SDS011;7099;53.922;10.728;2022-10-16T07:56:21;3.37;;;1.70;;
14048;SDS011;7099;53.922;10.728;2022-10-16T08:00:47;6.10;;;1.77;;
14048;SDS011;7099;53.922;10.728;2022-10-16T08:05:12;4.70;;;1.70;;
14048;SDS011;7099;53.922;10.728;2022-10-16T08:09:37;11.73;;;2.10;;
14048;SDS011;7099;53.922;10.728;2022-10-16T08:14:02;6.57;;;1.80;;
14048;SDS011;7099;53.922;10.728;2022-10-16T08:18:28;2.57;;;1.87;;
14048;SDS011;7099;53.922;10.728;2022-10-16T08:22:53;4.90;;;1.97;;
14048;SDS011;7099;53.922;10.728;2022-10-16T08:27:18;6.20;;;2.00;;
14048;SDS011;7099;53.922;10.728;2022-10-16T08:31:44;3.53;;;2.20;;
14048;SDS011;7099;53.922;10.728;2022-10-16T08:36:09;2.57;;;2.00;;
14048;SDS011;7099;53.922;10.728;2022-10-16T08:40:36;7.07;;;2.27;;
14048;SDS011;7099;53.922;10.728;2022-10-16T08:45:06;10.23;;;1.87;;
14048;SDS011;7099;53.922;10.728;2022-10-16T08:49:40;3.60;;;1.80;;
14048;SDS011;7099;53.922;10.728;2022-10-16T08:54:22;5.10;;;2.00;;
14048;SDS011;7099;53.922;10.728;2022-10-16T08:58:54;4.00;;;2.10;;
14048;SDS011;7099;53.922;10.728;2022-10-16T09:08:47;7.53;;;2.20;;
14048;SDS011;7099;53.922;10.728;2022-10-16T09:13:48;4.50;;;2.23;;
14048;SDS011;7099;53.922;10.728;2022-10-16T09:28:16;5.63;;;1.87;;
14048;SDS011;7099;53.922;10.728;2022-10-16T09:32:43;2.80;;;1.67;;
14048;SDS011;7099;53.922;10.728;2022-10-16T09:37:13;8.63;;;2.17;;
14048;SDS011;7099;53.922;10.728;2022-10-16T09:41:43;6.23;;;2.03;;
14048;SDS011;7099;53.922;10.728;2022-10-16T09:46:21;4.60;;;1.40;;
14048;SDS011;7099;53.922;10.728;2022-10-16T09:51:02;3.70;;;1.50;;
14048;SDS011;7099;53.922;10.728;2022-10-16T10:41:54;10.93;;;1.60;;
14048;SDS011;7099;53.922;10.728;2022-10-16T10:45:58;4.53;;;1.30;;
14048;SDS011;7099;53.922;10.728;2022-10-16T10:55:37;5.50;;;1.27;;
14048;SDS011;7099;53.922;10.728;2022-10-16T11:09:48;7.23;;;1.40;;
14048;SDS011;7099;53.922;10.728;2022-10-16T11:14:19;2.53;;;1.00;;
14048;SDS011;7099;53.922;10.728;2022-10-16T11:19:16;1.93;;;1.13;;
14048;SDS011;7099;53.922;10.728;2022-10-16T11:24:22;8.23;;;0.90;;
14048;SDS011;7099;53.922;10.728;2022-10-16T11:28:49;5.53;;;1.30;;
14048;SDS011;7099;53.922;10.728;2022-10-16T11:43:25;2.40;;;1.20;;
14048;SDS011;7099;53.922;10.728;2022-10-16T11:57:25;8.23;;;1.33;;
14048;SDS011;7099;53.922;10.728;2022-10-16T12:06:51;5.27;;;1.10;;
14048;SDS011;7099;53.922;10.728;2022-10-16T12:16:03;3.63;;;1.27;;
14048;SDS011;7099;53.922;10.728;2022-10-16T12:20:37;8.00;;;1.43;;
14048;SDS011;7099;53.922;10.728;2022-10-16T12:25:24;3.53;;;1.50;;
14048;SDS011;7099;53.922;10.728;2022-10-16T12:30:04;6.07;;;1.13;;
14048;SDS011;7099;53.922;10.728;2022-10-16T12:39:04;2.30;;;1.10;;
14048;SDS011;7099;53.922;10.728;2022-10-16T12:43:40;2.50;;;1.00;;
14048;SDS011;7099;53.922;10.728;2022-10-16T12:48:20;3.77;;;1.40;;
14048;SDS011;7099;53.922;10.728;2022-10-16T12:52:56;3.10;;;1.20;;
14048;SDS011;7099;53.922;10.728;2022-10-16T16:35:33;7.00;;;1.70;;
14048;SDS011;7099;53.922;10.728;2022-10-16T16:39:58;10.80;;;1.70;;
14048;SDS011;7099;53.922;10.728;2022-10-16T16:44:24;3.70;;;1.60;;
14048;SDS011;7099;53.922;10.728;2022-10-16T16:48:49;3.47;;;1.30;;
14048;SDS011;7099;53.922;10.728;2022-10-16T16:53:16;5.53;;;1.60;;
14048;SDS011;7099;53.922;10.728;2022-10-16T16:57:41;6.77;;;2.07;;
14048;SDS011;7099;53.922;10.728;2022-10-16T17:02:08;8.10;;;3.17;;
14048;SDS011;7099;53.922;10.728;2022-10-16T17:06:33;6.63;;;2.60;;
14048;SDS011;7099;53.922;10.728;2022-10-16T17:10:59;5.87;;;2.27;;
14048;SDS011;7099;53.922;10.728;2022-10-16T17:15:24;12.73;;;4.67;;
14048;SDS011;7099;53.922;10.728;2022-10-16T17:19:49;16.60;;;8.17;;
14048;SDS011;7099;53.922;10.728;2022-10-16T17:24:15;14.60;;;5.57;;
14048;SDS011;7099;53.922;10.728;2022-10-16T17:28:42;10.17;;;5.80;;
14048;SDS011;7099;53.922;10.728;2022-10-16T17:33:08;17.07;;;5.30;;
14048;SDS011;7099;53.922;10.728;2022-10-16T17:37:35;10.20;;;5.10;;
14048;SDS011;7099;53.922;10.728;2022-10-16T17:42:00;12.10;;;4.97;;
14048;SDS011;7099;53.922;10.728;2022-10-16T17:46:26;12.90;;;4.57;;
14048;SDS011;7099;53.922;10.728;2022-10-16T17:50:53;12.20;;;4.40;;
14048;SDS011;7099;53.922;10.728;2022-10-16T17:55:18;13.23;;;3.70;;
14048;SDS011;7099;53.922;10.728;2022-10-16T17:59:50;8.63;;;4.27;;
14048;SDS011;7099;53.922;10.728;2022-10-16T18:30:53;17.93;;;4.23;;
14048;SDS011;7099;53.922;10.728;2022-10-16T18:35:24;7.70;;;3.80;;
14048;SDS011;7099;53.922;10.728;2022-10-16T18:39:49;17.47;;;4.53;;
14048;SDS011;7099;53.922;10.728;2022-10-16T18:48:40;10.50;;;3.40;;
14048;SDS011;7099;53.922;10.728;2022-10-16T18:53:06;12.93;;;4.37;;
14048;SDS011;7099;53.922;10.728;2022-10-16T18:57:31;5.57;;;3.83;;
14048;SDS011;7099;53.922;10.728;2022-10-16T19:01:57;11.00;;;3.83;;
14048;SDS011;7099;53.922;10.728;2022-10-16T19:06:23;10.33;;;4.13;;
14048;SDS011;7099;53.922;10.728;2022-10-16T19:10:49;10.27;;;3.90;;
14048;SDS011;7099;53.922;10.728;2022-10-16T19:15:15;7.30;;;4.33;;
14048;SDS011;7099;53.922;10.728;2022-10-16T19:19:40;10.63;;;5.30;;
14048;SDS011;7099;53.922;10.728;2022-10-16T19:24:06;11.03;;;4.80;;
14048;SDS011;7099;53.922;10.728;2022-10-16T19:28:34;14.60;;;5.27;;
14048;SDS011;7099;53.922;10.728;2022-10-16T19:33:00;14.03;;;7.83;;
14048;SDS011;7099;53.922;10.728;2022-10-16T19:37:26;16.33;;;6.13;;
14048;SDS011;7099;53.922;10.728;2022-10-16T19:41:51;13.83;;;7.93;;
14048;SDS011;7099;53.922;10.728;2022-10-16T19:46:18;15.87;;;9.73;;
14048;SDS011;7099;53.922;10.728;2022-10-16T19:50:48;20.90;;;9.17;;
14048;SDS011;7099;53.922;10.728;2022-10-16T19:55:13;13.47;;;9.50;;
14048;SDS011;7099;53.922;10.728;2022-10-16T19:59:38;14.63;;;9.73;;
14048;SDS011;7099;53.922;10.728;2022-10-16T20:04:09;17.60;;;9.10;;
14048;SDS011;7099;53.922;10.728;2022-10-16T20:08:36;15.27;;;7.80;;
14048;SDS011;7099;53.922;10.728;2022-10-16T20:13:04;19.23;;;9.50;;
14048;SDS011;7099;53.922;10.728;2022-10-16T20:17:31;31.07;;;10.70;;
14048;SDS011;7099;53.922;10.728;2022-10-16T20:21:57;15.00;;;10.00;;
